Time;durP1;ratioP1;P1;durP2;ratioP2;P2;SDS_P1;SDS_P2;PMS_P1;PMS_P2;Temp;Humidity;BMP_temperature;BMP_pressure;BME280_temperature;BME280_humidity;BME280_pressure;Samples;Min_cycle;Max_cycle;Signal;HPM_P1;HPM_P2
2022/12/23 00:00:56;;;;;;;58.97;16.17;;;;;;;;;;5068814;28;20164;-79
2022/12/23 00:03:22;;;;;;;62.28;16.38;;;;;;;;;;5067227;28;20045;-79
2022/12/23 00:05:49;;;;;;;59.35;17.13;;;;;;;;;;5068096;28;20045;-79
2022/12/23 00:08:16;;;;;;;64.90;16.63;;;;;;;;;;5050140;28;20523;-79
2022/12/23 00:10:42;;;;;;;66.13;16.65;;;;;;;;;;5068203;28;20132;-79
2022/12/23 00:16:05;;;;;;;60.88;16.10;;;;;;;;;;5067562;28;20130;-79
2022/12/23 00:18:31;;;;;;;71.63;18.65;;;;;;;;;;5067821;28;20052;-79
2022/12/23 00:20:59;;;;;;;65.78;17.75;;;;;;;;;;5068505;28;20090;-79
2022/12/23 00:23:38;;;;;;;74.22;19.38;;;;;;;;;;5063468;28;20814;-79
2022/12/23 00:26:04;;;;;;;;;;;;;;;;;;5071156;28;20056;-79
2022/12/23 00:28:30;;;;;;;75.15;17.75;;;;;;;;;;5069298;28;44924;-79
2022/12/23 00:31:00;;;;;;;64.30;18.40;;;;;;;;;;5071873;28;20093;-80
2022/12/23 00:33:27;;;;;;;74.13;19.50;;;;;;;;;;5049499;28;20392;-80
2022/12/23 00:35:54;;;;;;;80.57;18.60;;;;;;;;;;5051598;28;20104;-80
2022/12/23 00:42:52;;;;;;;72.25;18.02;;;;;;;;;;5070993;28;20088;-80
2022/12/23 00:44:02;;;;;;;66.60;16.55;;;;;;;;;;5069507;28;20064;-80
2022/12/23 00:46:29;;;;;;;68.60;17.73;;;;;;;;;;5071096;28;20435;-79
2022/12/23 00:51:40;;;;;;;68.95;17.38;;;;;;;;;;5069447;28;20069;-80
2022/12/23 00:54:06;;;;;;;63.38;15.75;;;;;;;;;;5070563;28;20131;-80
2022/12/23 00:56:33;;;;;;;57.40;16.08;;;;;;;;;;5071797;28;20061;-80
2022/12/23 00:58:59;;;;;;;63.03;14.63;;;;;;;;;;5069132;28;20057;-80
2022/12/23 01:07:00;;;;;;;54.75;14.68;;;;;;;;;;5068596;28;20087;-80
2022/12/23 01:09:26;;;;;;;65.85;14.75;;;;;;;;;;5071360;28;20057;-80
2022/12/23 01:11:54;;;;;;;64.45;17.50;;;;;;;;;;5071717;28;20056;-80
2022/12/23 01:14:21;;;;;;;57.75;14.52;;;;;;;;;;5069685;28;20056;-80
2022/12/23 01:16:47;;;;;;;55.78;14.90;;;;;;;;;;5069922;28;20513;-80
2022/12/23 01:19:14;;;;;;;51.88;14.02;;;;;;;;;;5053237;28;20049;-80
2022/12/23 01:21:40;;;;;;;56.85;13.80;;;;;;;;;;5067391;28;20064;-79
2022/12/23 01:24:07;;;;;;;54.03;14.02;;;;;;;;;;5070446;28;20323;-80
2022/12/23 01:26:34;;;;;;;50.55;14.93;;;;;;;;;;5062754;28;20516;-80
2022/12/23 01:29:00;;;;;;;61.28;15.73;;;;;;;;;;5070201;28;20110;-79
2022/12/23 01:31:27;;;;;;;52.65;14.38;;;;;;;;;;5070841;28;20147;-80
2022/12/23 01:33:54;;;;;;;50.05;14.65;;;;;;;;;;5068993;28;20049;-79
2022/12/23 01:36:21;;;;;;;50.30;14.13;;;;;;;;;;5048510;28;20057;-79
2022/12/23 01:38:48;;;;;;;58.05;14.68;;;;;;;;;;5042283;28;20558;-79
2022/12/23 01:42:42;;;;;;;49.85;14.38;;;;;;;;;;5070480;28;20061;-79
2022/12/23 01:44:23;;;;;;;49.00;13.60;;;;;;;;;;5069990;28;20136;-79
2022/12/23 01:46:50;;;;;;;49.88;13.48;;;;;;;;;;5069474;28;20077;-79
2022/12/23 01:49:16;;;;;;;47.47;12.90;;;;;;;;;;5069101;28;20056;-79
2022/12/23 01:51:43;;;;;;;49.67;13.70;;;;;;;;;;5068068;28;20065;-79
2022/12/23 01:54:10;;;;;;;52.83;13.30;;;;;;;;;;5069159;28;20052;-79
2022/12/23 01:56:38;;;;;;;49.35;13.30;;;;;;;;;;5070143;28;20061;-79
2022/12/23 01:59:10;;;;;;;50.63;12.93;;;;;;;;;;5069662;28;20060;-79
2022/12/23 02:04:23;;;;;;;52.03;13.45;;;;;;;;;;5066718;28;20132;-79
2022/12/23 02:09:39;;;;;;;35.95;11.27;;;;;;;;;;5069453;28;20136;-79
2022/12/23 02:12:24;;;;;;;35.97;11.00;;;;;;;;;;5069975;28;20045;-80
2022/12/23 02:17:39;;;;;;;35.08;9.77;;;;;;;;;;5056293;28;20435;-79
2022/12/23 02:20:19;;;;;;;40.75;10.60;;;;;;;;;;5068284;28;20510;-79
2022/12/23 02:22:59;;;;;;;34.17;9.93;;;;;;;;;;5067461;28;20057;-78
2022/12/23 02:25:39;;;;;;;36.57;10.57;;;;;;;;;;5051177;28;20583;-79
2022/12/23 02:28:12;;;;;;;35.47;9.43;;;;;;;;;;5060143;28;20187;-79
2022/12/23 02:30:38;;;;;;;38.25;9.82;;;;;;;;;;5068629;28;20060;-80
2022/12/23 02:33:05;;;;;;;32.72;8.85;;;;;;;;;;5066665;28;20077;-79
2022/12/23 02:35:39;;;;;;;33.85;8.75;;;;;;;;;;5069392;28;20088;-80
2022/12/23 02:38:12;;;;;;;37.63;8.98;;;;;;;;;;5067497;28;20049;-79
2022/12/23 02:40:54;;;;;;;34.03;8.57;;;;;;;;;;5049383;28;20144;-79
2022/12/23 02:43:35;;;;;;;20.70;6.57;;;;;;;;;;5069819;28;20053;-80
2022/12/23 02:46:20;;;;;;;20.52;7.05;;;;;;;;;;5067735;28;20144;-79
2022/12/23 02:48:54;;;;;;;22.10;7.13;;;;;;;;;;5064918;28;20148;-79
2022/12/23 02:51:23;;;;;;;21.45;6.80;;;;;;;;;;5067509;28;20496;-80
2022/12/23 02:53:52;;;;;;;20.98;7.72;;;;;;;;;;5068327;28;20061;-80
2022/12/23 02:56:20;;;;;;;20.05;7.15;;;;;;;;;;5068594;28;20085;-80
2022/12/23 02:58:51;;;;;;;23.17;7.68;;;;;;;;;;5056341;28;20125;-79
2022/12/23 03:01:18;;;;;;;21.25;7.57;;;;;;;;;;5064978;28;20543;-80
2022/12/23 03:03:46;;;;;;;19.25;6.82;;;;;;;;;;5049929;28;20053;-79
2022/12/23 03:06:22;;;;;;;19.85;6.68;;;;;;;;;;5068589;28;20053;-79
2022/12/23 03:08:49;;;;;;;20.73;6.68;;;;;;;;;;5068481;28;20119;-79
2022/12/23 03:11:17;;;;;;;17.67;6.15;;;;;;;;;;5068827;28;20041;-79
2022/12/23 03:13:59;;;;;;;22.23;6.65;;;;;;;;;;5068290;28;20136;-79
2022/12/23 03:16:46;;;;;;;23.08;7.68;;;;;;;;;;5066218;28;20049;-79
2022/12/23 03:19:30;;;;;;;19.67;6.47;;;;;;;;;;5066404;28;20177;-79
2022/12/23 03:22:15;;;;;;;20.33;7.20;;;;;;;;;;5048806;28;20535;-79
2022/12/23 03:24:48;;;;;;;28.13;7.80;;;;;;;;;;5048061;28;20858;-79
2022/12/23 03:27:34;;;;;;;21.45;8.98;;;;;;;;;;5066893;28;20071;-80
2022/12/23 03:30:03;;;;;;;25.88;7.28;;;;;;;;;;5068201;28;20060;-80
2022/12/23 03:32:32;;;;;;;25.88;6.72;;;;;;;;;;5068594;28;20099;-80
2022/12/23 03:35:01;;;;;;;23.67;7.32;;;;;;;;;;5068206;28;20103;-80
2022/12/23 03:37:31;;;;;;;23.45;8.23;;;;;;;;;;5067601;28;20033;-80
2022/12/23 03:40:01;;;;;;;22.90;7.68;;;;;;;;;;5063362;28;20522;-79
2022/12/23 03:42:32;;;;;;;23.45;7.75;;;;;;;;;;5054534;28;20132;-79
2022/12/23 03:45:01;;;;;;;20.75;7.20;;;;;;;;;;5068159;28;20080;-79
2022/12/23 03:47:54;;;;;;;23.00;7.55;;;;;;;;;;5065289;28;21368;-80
2022/12/23 03:50:22;;;;;;;19.38;7.22;;;;;;;;;;5048623;28;20089;-79
2022/12/23 03:52:57;;;;;;;20.88;7.32;;;;;;;;;;5067905;28;20049;-79
2022/12/23 03:55:35;;;;;;;25.05;7.60;;;;;;;;;;5065932;28;20530;-79
2022/12/23 03:58:10;;;;;;;24.20;6.95;;;;;;;;;;5064465;28;20092;-79
2022/12/23 04:00:42;;;;;;;26.98;7.53;;;;;;;;;;5071360;28;20053;-80
2022/12/23 04:03:12;;;;;;;27.30;7.25;;;;;;;;;;5067542;28;20524;-80
2022/12/23 04:05:41;;;;;;;25.38;7.38;;;;;;;;;;5064507;28;20053;-79
2022/12/23 04:08:23;;;;;;;22.92;7.45;;;;;;;;;;5071589;28;20415;-80
2022/12/23 04:10:50;;;;;;;20.48;6.72;;;;;;;;;;5071397;28;20068;-80
2022/12/23 04:13:17;;;;;;;22.77;6.78;;;;;;;;;;5070161;28;20806;-80
2022/12/23 04:15:44;;;;;;;27.38;7.18;;;;;;;;;;5069759;28;20120;-80
2022/12/23 04:18:11;;;;;;;26.17;8.38;;;;;;;;;;5069694;28;20053;-80
2022/12/23 04:20:38;;;;;;;25.35;8.20;;;;;;;;;;5070973;28;20113;-79
2022/12/23 04:23:05;;;;;;;25.30;7.20;;;;;;;;;;5052972;28;20056;-80
2022/12/23 04:25:32;;;;;;;27.77;7.53;;;;;;;;;;5069344;28;20064;-80
2022/12/23 04:28:00;;;;;;;24.85;7.63;;;;;;;;;;5070111;28;20061;-79
2022/12/23 04:30:27;;;;;;;33.67;7.68;;;;;;;;;;5070903;28;20059;-80
2022/12/23 04:32:59;;;;;;;28.38;7.25;;;;;;;;;;5069999;28;20794;-80
2022/12/23 04:35:26;;;;;;;26.50;7.47;;;;;;;;;;5069433;28;20850;-80
2022/12/23 04:37:53;;;;;;;26.48;7.82;;;;;;;;;;5071139;28;20055;-80
2022/12/23 04:40:20;;;;;;;29.80;7.97;;;;;;;;;;5054585;28;20059;-80
2022/12/23 04:42:47;;;;;;;27.63;7.88;;;;;;;;;;5053347;28;20810;-79
2022/12/23 04:45:14;;;;;;;27.42;7.47;;;;;;;;;;5061501;28;20463;-80
2022/12/23 04:47:42;;;;;;;27.42;8.40;;;;;;;;;;5071218;28;20107;-80
2022/12/23 04:50:12;;;;;;;25.65;8.30;;;;;;;;;;5071798;28;20053;-80
2022/12/23 04:52:40;;;;;;;23.08;7.30;;;;;;;;;;5072118;28;20060;-80
2022/12/23 04:55:08;;;;;;;33.08;7.55;;;;;;;;;;5071154;28;20926;-80
2022/12/23 04:57:36;;;;;;;25.60;7.57;;;;;;;;;;5053001;28;20052;-80
2022/12/23 05:00:03;;;;;;;25.50;6.75;;;;;;;;;;5052006;28;20049;-80
2022/12/23 05:02:30;;;;;;;26.42;7.55;;;;;;;;;;5070160;28;20114;-80
2022/12/23 05:04:57;;;;;;;28.10;7.85;;;;;;;;;;5070629;28;20606;-80
2022/12/23 05:07:24;;;;;;;29.40;8.68;;;;;;;;;;5069707;28;20136;-80
2022/12/23 05:09:52;;;;;;;30.45;8.85;;;;;;;;;;5070796;28;20056;-80
2022/12/23 05:12:18;;;;;;;29.50;8.68;;;;;;;;;;5069414;28;20539;-80
2022/12/23 05:14:46;;;;;;;26.77;7.75;;;;;;;;;;5070217;28;20107;-80
2022/12/23 05:17:13;;;;;;;31.08;9.13;;;;;;;;;;5071890;28;20068;-80
2022/12/23 05:19:40;;;;;;;32.22;9.30;;;;;;;;;;5073125;28;20045;-80
2022/12/23 05:22:07;;;;;;;31.95;8.85;;;;;;;;;;5073260;28;20107;-80
2022/12/23 05:24:35;;;;;;;28.17;8.60;;;;;;;;;;5052932;28;20038;-80
2022/12/23 05:27:02;;;;;;;33.42;9.48;;;;;;;;;;5070549;28;20145;-80
2022/12/23 05:29:30;;;;;;;41.47;10.57;;;;;;;;;;5072908;28;20060;-80
2022/12/23 05:31:57;;;;;;;42.25;10.82;;;;;;;;;;5054729;28;20049;-80
2022/12/23 05:34:24;;;;;;;32.00;9.98;;;;;;;;;;5073071;28;20068;-80
2022/12/23 05:36:50;;;;;;;35.10;9.38;;;;;;;;;;5071466;28;20443;-80
2022/12/23 05:39:18;;;;;;;34.90;10.13;;;;;;;;;;5070696;28;20143;-80
2022/12/23 05:41:45;;;;;;;40.65;10.48;;;;;;;;;;5072442;28;20057;-80
2022/12/23 05:44:12;;;;;;;40.17;10.15;;;;;;;;;;5054831;28;20053;-80
2022/12/23 05:46:38;;;;;;;43.88;11.13;;;;;;;;;;5071869;28;20095;-80
2022/12/23 05:49:06;;;;;;;35.10;10.30;;;;;;;;;;5071806;28;20111;-80
2022/12/23 05:51:33;;;;;;;40.47;10.65;;;;;;;;;;5071038;28;20049;-80
2022/12/23 05:54:00;;;;;;;41.97;9.98;;;;;;;;;;5069802;28;20045;-80
2022/12/23 05:56:27;;;;;;;42.38;10.88;;;;;;;;;;5070984;28;20053;-80
2022/12/23 05:58:54;;;;;;;37.15;10.70;;;;;;;;;;5071809;28;20049;-80
2022/12/23 06:01:20;;;;;;;34.42;8.90;;;;;;;;;;5071804;28;20151;-80
2022/12/23 06:03:47;;;;;;;46.47;10.45;;;;;;;;;;5052540;28;20059;-80
2022/12/23 06:06:15;;;;;;;46.25;10.48;;;;;;;;;;5061346;28;20601;-80
2022/12/23 06:08:42;;;;;;;31.40;9.45;;;;;;;;;;5050199;28;20057;-80
2022/12/23 06:11:09;;;;;;;33.75;9.73;;;;;;;;;;5071474;28;20057;-80
2022/12/23 06:13:36;;;;;;;36.67;9.88;;;;;;;;;;5071037;28;20140;-80
2022/12/23 06:16:03;;;;;;;36.00;10.07;;;;;;;;;;5069294;28;20523;-80
2022/12/23 06:18:30;;;;;;;42.17;11.20;;;;;;;;;;5071602;28;20072;-80
2022/12/23 06:20:58;;;;;;;38.00;9.93;;;;;;;;;;5070024;28;20057;-80
2022/12/23 06:23:26;;;;;;;33.58;9.93;;;;;;;;;;5068331;28;20520;-80
2022/12/23 06:25:59;;;;;;;38.78;10.65;;;;;;;;;;5055957;28;20409;-80
2022/12/23 06:28:28;;;;;;;38.80;11.07;;;;;;;;;;5070885;28;20056;-80
2022/12/23 06:30:56;;;;;;;34.78;10.40;;;;;;;;;;5071202;28;20056;-80
2022/12/23 06:33:23;;;;;;;36.53;9.98;;;;;;;;;;5070325;28;20137;-79
2022/12/23 06:35:50;;;;;;;32.47;9.50;;;;;;;;;;5068172;28;20068;-80
2022/12/23 06:38:17;;;;;;;31.60;10.32;;;;;;;;;;5070343;28;20516;-80
2022/12/23 06:40:44;;;;;;;37.38;10.15;;;;;;;;;;5071365;28;20045;-80
2022/12/23 06:43:12;;;;;;;35.78;9.85;;;;;;;;;;5071197;28;20053;-80
2022/12/23 06:45:38;;;;;;;35.67;9.23;;;;;;;;;;5068456;28;20064;-80
2022/12/23 06:48:05;;;;;;;32.08;8.70;;;;;;;;;;5035584;28;20107;-80
2022/12/23 06:50:31;;;;;;;36.42;10.00;;;;;;;;;;5071375;28;20135;-79
2022/12/23 06:52:58;;;;;;;45.13;10.85;;;;;;;;;;5068185;28;20064;-80
2022/12/23 06:55:25;;;;;;;46.50;9.70;;;;;;;;;;5068787;28;20052;-79
2022/12/23 06:57:52;;;;;;;36.30;9.93;;;;;;;;;;5050668;28;20079;-79
2022/12/23 07:00:21;;;;;;;30.95;9.00;;;;;;;;;;5049901;28;20063;-79
2022/12/23 07:02:48;;;;;;;34.28;10.43;;;;;;;;;;5063386;28;20045;-80
2022/12/23 07:05:15;;;;;;;42.78;10.35;;;;;;;;;;5067784;28;20846;-80
2022/12/23 07:07:43;;;;;;;31.13;9.40;;;;;;;;;;5063611;28;20828;-80
2022/12/23 07:10:10;;;;;;;42.97;9.65;;;;;;;;;;5067319;28;20049;-80
2022/12/23 07:12:37;;;;;;;29.52;9.15;;;;;;;;;;5067431;28;20111;-80
2022/12/23 07:15:04;;;;;;;33.13;9.90;;;;;;;;;;5062319;28;20057;-81
2022/12/23 07:17:31;;;;;;;30.48;9.27;;;;;;;;;;5050382;28;20095;-80
2022/12/23 07:19:58;;;;;;;36.03;9.50;;;;;;;;;;5069059;28;20111;-80
2022/12/23 07:22:24;;;;;;;35.20;10.02;;;;;;;;;;5068981;28;20057;-80
2022/12/23 07:24:51;;;;;;;43.90;9.93;;;;;;;;;;5068775;28;20061;-80
2022/12/23 07:27:17;;;;;;;41.13;9.85;;;;;;;;;;5071045;28;20052;-80
2022/12/23 07:29:43;;;;;;;39.92;11.32;;;;;;;;;;5069568;28;20053;-80
2022/12/23 07:32:10;;;;;;;35.88;10.25;;;;;;;;;;5050482;28;20052;-80
2022/12/23 07:34:36;;;;;;;40.95;9.57;;;;;;;;;;5070936;28;20061;-80
2022/12/23 07:37:03;;;;;;;33.20;10.77;;;;;;;;;;5071617;28;20124;-80
2022/12/23 07:39:29;;;;;;;46.70;11.15;;;;;;;;;;5054459;28;20546;-80
2022/12/23 07:41:55;;;;;;;43.88;10.93;;;;;;;;;;5072645;28;20142;-80
2022/12/23 07:44:42;;;;;;;40.65;10.93;;;;;;;;;;5073545;28;20053;-80
2022/12/23 07:47:09;;;;;;;42.78;11.45;;;;;;;;;;5073211;28;20049;-80
2022/12/23 07:49:36;;;;;;;40.72;10.82;;;;;;;;;;5072809;28;20111;-81
2022/12/23 07:52:02;;;;;;;60.30;11.07;;;;;;;;;;5054796;28;20084;-80
2022/12/23 07:54:29;;;;;;;48.40;11.68;;;;;;;;;;5072833;28;20064;-80
2022/12/23 07:56:56;;;;;;;47.80;11.82;;;;;;;;;;5072934;28;20048;-80
2022/12/23 07:59:26;;;;;;;46.92;12.35;;;;;;;;;;5073529;28;20151;-80
2022/12/23 08:01:52;;;;;;;47.05;11.60;;;;;;;;;;5055307;28;20057;-80
2022/12/23 08:04:19;;;;;;;42.95;12.25;;;;;;;;;;5071999;28;20454;-80
2022/12/23 08:06:45;;;;;;;52.70;12.25;;;;;;;;;;5071961;28;20053;-80
2022/12/23 08:09:12;;;;;;;47.95;12.15;;;;;;;;;;5071693;28;20092;-80
2022/12/23 08:11:38;;;;;;;40.00;11.25;;;;;;;;;;5070330;28;20132;-80
2022/12/23 08:14:05;;;;;;;59.80;14.07;;;;;;;;;;5068942;28;20063;-80
2022/12/23 08:16:32;;;;;;;38.20;11.75;;;;;;;;;;5071841;28;20523;-80
2022/12/23 08:19:06;;;;;;;49.47;12.18;;;;;;;;;;5071700;28;20057;-80
2022/12/23 08:21:33;;;;;;;42.83;11.93;;;;;;;;;;5064824;28;20087;-80
2022/12/23 08:23:59;;;;;;;49.88;12.70;;;;;;;;;;5059564;28;20368;-80
2022/12/23 08:26:26;;;;;;;43.65;12.10;;;;;;;;;;5068686;28;20483;-80
2022/12/23 08:28:52;;;;;;;52.67;12.35;;;;;;;;;;5047523;28;20053;-80
2022/12/23 08:31:20;;;;;;;58.25;12.55;;;;;;;;;;5052777;28;20060;-80
2022/12/23 08:33:48;;;;;;;52.03;13.52;;;;;;;;;;5055589;28;20053;-80
2022/12/23 08:36:16;;;;;;;56.45;13.43;;;;;;;;;;5070305;28;20060;-80
2022/12/23 08:38:49;;;;;;;53.28;13.43;;;;;;;;;;5069922;28;21766;-80
2022/12/23 08:41:17;;;;;;;55.92;13.43;;;;;;;;;;5063119;28;20152;-80
2022/12/23 08:43:44;;;;;;;69.30;15.65;;;;;;;;;;5072306;28;20050;-81
2022/12/23 08:46:10;;;;;;;55.25;14.48;;;;;;;;;;5069223;28;20132;-81
2022/12/23 08:48:37;;;;;;;61.42;14.73;;;;;;;;;;5066501;28;20562;-80
2022/12/23 08:51:09;;;;;;;54.67;15.02;;;;;;;;;;5066114;28;20152;-80
2022/12/23 08:53:36;;;;;;;65.75;16.20;;;;;;;;;;5070945;28;20060;-80
2022/12/23 08:56:08;;;;;;;62.92;16.10;;;;;;;;;;5071878;28;20072;-79
2022/12/23 08:58:38;;;;;;;59.70;15.73;;;;;;;;;;5071473;28;20916;-79
2022/12/23 09:01:05;;;;;;;60.25;15.80;;;;;;;;;;5071624;28;20512;-79
2022/12/23 09:03:32;;;;;;;61.97;15.43;;;;;;;;;;5051963;28;20055;-79
2022/12/23 09:06:02;;;;;;;71.35;15.80;;;;;;;;;;5068854;28;20045;-79
2022/12/23 09:08:28;;;;;;;63.77;15.63;;;;;;;;;;5048684;28;20145;-79
2022/12/23 09:10:55;;;;;;;59.22;15.07;;;;;;;;;;5067695;28;20151;-80
2022/12/23 09:13:21;;;;;;;62.00;15.07;;;;;;;;;;5056595;28;20053;-80
2022/12/23 09:16:00;;;;;;;65.13;15.88;;;;;;;;;;5053135;28;20061;-80
2022/12/23 09:18:26;;;;;;;57.40;15.38;;;;;;;;;;5070641;28;20420;-79
2022/12/23 09:21:18;;;;;;;68.55;15.55;;;;;;;;;;5064964;28;20154;-80
2022/12/23 09:23:45;;;;;;;64.03;14.35;;;;;;;;;;5060622;28;20059;-81
2022/12/23 09:26:16;;;;;;;77.85;15.88;;;;;;;;;;5047662;28;20515;-81
2022/12/23 09:28:43;;;;;;;82.28;15.57;;;;;;;;;;5049214;28;20076;-80
2022/12/23 09:31:10;;;;;;;86.60;15.93;;;;;;;;;;5071892;28;20053;-80
2022/12/23 09:33:36;;;;;;;98.43;16.40;;;;;;;;;;5068404;28;20068;-81
2022/12/23 09:36:03;;;;;;;105.90;17.25;;;;;;;;;;5065524;28;20085;-81
2022/12/23 09:38:30;;;;;;;92.38;16.63;;;;;;;;;;5067871;28;20865;-81
2022/12/23 09:41:05;;;;;;;103.65;17.17;;;;;;;;;;5066882;28;20057;-81
2022/12/23 09:43:49;;;;;;;75.78;15.23;;;;;;;;;;5070156;28;20139;-81
2022/12/23 09:46:24;;;;;;;80.03;15.45;;;;;;;;;;5053110;28;20080;-81
2022/12/23 09:49:04;;;;;;;71.35;14.95;;;;;;;;;;5068763;28;20147;-81
2022/12/23 09:51:31;;;;;;;95.45;16.13;;;;;;;;;;5059707;28;20136;-81
2022/12/23 09:54:02;;;;;;;81.25;14.98;;;;;;;;;;5052621;28;20522;-82
2022/12/23 09:56:47;;;;;;;65.50;12.95;;;;;;;;;;5070057;28;20808;-81
2022/12/23 09:59:18;;;;;;;60.55;13.80;;;;;;;;;;5068090;28;20526;-85
2022/12/23 10:01:45;;;;;;;63.55;13.23;;;;;;;;;;5070519;28;20107;-81
2022/12/23 10:04:20;;;;;;;94.10;15.23;;;;;;;;;;5068530;28;20139;-80
2022/12/23 10:06:51;;;;;;;75.38;15.43;;;;;;;;;;5068369;28;20057;-81
2022/12/23 10:09:23;;;;;;;74.03;13.60;;;;;;;;;;5068025;28;20053;-79
2022/12/23 10:11:50;;;;;;;81.88;15.27;;;;;;;;;;5068951;28;20055;-81
2022/12/23 10:14:20;;;;;;;84.72;15.00;;;;;;;;;;5053953;28;20057;-79
2022/12/23 10:17:18;;;;;;;82.72;15.30;;;;;;;;;;5053810;28;21707;-80
2022/12/23 10:19:46;;;;;;;67.70;15.02;;;;;;;;;;5045182;28;20073;-80
2022/12/23 10:22:13;;;;;;;57.83;13.48;;;;;;;;;;5069383;28;20488;-80
2022/12/23 10:24:41;;;;;;;61.30;13.82;;;;;;;;;;5075448;28;20079;-80
2022/12/23 10:27:26;;;;;;;65.78;14.68;;;;;;;;;;5072773;28;20063;-81
2022/12/23 10:29:52;;;;;;;61.90;14.40;;;;;;;;;;5063274;28;20903;-80
2022/12/23 10:32:34;;;;;;;59.22;13.40;;;;;;;;;;5057853;28;20057;-81
2022/12/23 10:35:04;;;;;;;50.95;11.15;;;;;;;;;;5067061;28;20885;-80
2022/12/23 10:37:36;;;;;;;46.10;11.80;;;;;;;;;;5065735;28;20117;-81
2022/12/23 10:40:02;;;;;;;48.58;11.52;;;;;;;;;;5064634;28;20042;-80
2022/12/23 10:42:35;;;;;;;43.58;10.43;;;;;;;;;;5050214;28;20281;-81
2022/12/23 10:45:06;;;;;;;41.78;10.27;;;;;;;;;;5042339;28;20057;-81
2022/12/23 10:48:00;;;;;;;37.95;10.95;;;;;;;;;;5064478;28;20158;-80
2022/12/23 10:50:33;;;;;;;48.35;11.90;;;;;;;;;;5003152;28;20060;-80
2022/12/23 10:53:01;;;;;;;49.95;12.40;;;;;;;;;;5066458;28;20384;-80
2022/12/23 10:55:30;;;;;;;51.03;13.00;;;;;;;;;;5051878;28;20061;-80
2022/12/23 10:58:18;;;;;;;49.17;13.55;;;;;;;;;;5066721;28;20049;-80
2022/12/23 11:00:48;;;;;;;53.72;12.60;;;;;;;;;;5065089;28;20049;-81
2022/12/23 11:03:16;;;;;;;60.15;14.90;;;;;;;;;;5064956;28;20053;-81
2022/12/23 11:05:44;;;;;;;62.58;14.60;;;;;;;;;;5046696;28;20061;-81
2022/12/23 11:08:11;;;;;;;66.15;14.38;;;;;;;;;;5056525;28;20188;-81
2022/12/23 11:10:38;;;;;;;65.35;16.30;;;;;;;;;;5054358;28;20504;-81
2022/12/23 11:13:04;;;;;;;65.68;15.00;;;;;;;;;;5068059;28;20530;-81
2022/12/23 11:15:40;;;;;;;64.50;16.27;;;;;;;;;;5058817;28;20144;-79
2022/12/23 11:18:12;;;;;;;73.78;17.52;;;;;;;;;;5068262;28;20068;-82
2022/12/23 11:20:40;;;;;;;90.72;18.40;;;;;;;;;;5069707;28;20328;-81
2022/12/23 11:23:22;;;;;;;89.45;19.45;;;;;;;;;;5069752;28;20057;-80
2022/12/23 11:25:58;;;;;;;80.65;18.95;;;;;;;;;;5066141;28;20486;-81
2022/12/23 11:28:24;;;;;;;102.70;20.35;;;;;;;;;;5070516;28;20140;-81
2022/12/23 11:31:13;;;;;;;107.43;22.17;;;;;;;;;;5071501;28;20053;-81
2022/12/23 11:33:44;;;;;;;113.13;23.92;;;;;;;;;;5045026;28;20068;-81
2022/12/23 11:36:10;;;;;;;114.70;24.30;;;;;;;;;;5070200;28;20475;-82
2022/12/23 11:38:46;;;;;;;129.45;24.15;;;;;;;;;;5050868;28;20071;-82
2022/12/23 11:41:16;;;;;;;104.78;24.42;;;;;;;;;;5070552;28;20053;-82
2022/12/23 11:43:46;;;;;;;129.77;25.95;;;;;;;;;;5069294;28;20056;-83
2022/12/23 11:46:32;;;;;;;106.93;25.03;;;;;;;;;;5070372;28;20507;-83
2022/12/23 11:49:05;;;;;;;138.73;24.77;;;;;;;;;;5070843;28;20107;-83
2022/12/23 11:51:32;;;;;;;114.82;25.95;;;;;;;;;;5071207;28;20135;-83
2022/12/23 11:53:59;;;;;;;123.30;28.05;;;;;;;;;;5067896;28;20891;-83
2022/12/23 11:56:27;;;;;;;116.03;25.42;;;;;;;;;;5063597;28;20052;-82
2022/12/23 11:58:58;;;;;;;96.50;24.08;;;;;;;;;;5049590;28;20061;-82
2022/12/23 12:01:25;;;;;;;101.32;24.92;;;;;;;;;;5068600;28;20430;-83
2022/12/23 12:03:57;;;;;;;111.32;26.73;;;;;;;;;;5067835;28;20065;-82
2022/12/23 12:06:25;;;;;;;95.53;23.70;;;;;;;;;;5049378;28;20067;-82
2022/12/23 12:08:54;;;;;;;104.85;24.50;;;;;;;;;;5049557;28;20061;-82
2022/12/23 12:11:24;;;;;;;97.20;24.20;;;;;;;;;;5067055;28;20152;-82
2022/12/23 12:14:05;;;;;;;102.38;23.38;;;;;;;;;;5067769;28;20175;-82
2022/12/23 12:16:50;;;;;;;83.72;22.52;;;;;;;;;;5045041;28;20138;-82
2022/12/23 12:19:23;;;;;;;100.45;25.35;;;;;;;;;;5063502;28;20067;-82
2022/12/23 12:21:52;;;;;;;85.65;21.17;;;;;;;;;;5044223;28;20077;-81
2022/12/23 12:24:24;;;;;;;77.07;19.15;;;;;;;;;;5072002;28;20056;-82
2022/12/23 12:26:52;;;;;;;74.80;18.58;;;;;;;;;;5078593;28;20052;-81
2022/12/23 12:29:35;;;;;;;87.95;20.25;;;;;;;;;;5074836;28;20061;-82
2022/12/23 12:32:02;;;;;;;70.78;18.42;;;;;;;;;;5069462;28;20056;-83
2022/12/23 12:34:32;;;;;;;63.47;17.75;;;;;;;;;;5069045;28;20136;-83
2022/12/23 12:37:03;;;;;;;63.90;15.60;;;;;;;;;;5071693;28;20052;-82
2022/12/23 12:39:33;;;;;;;55.53;16.63;;;;;;;;;;5065258;28;20135;-83
2022/12/23 12:42:01;;;;;;;66.15;16.58;;;;;;;;;;5069331;28;20049;-83
2022/12/23 12:44:39;;;;;;;55.35;16.65;;;;;;;;;;5069972;28;20431;-83
2022/12/23 12:47:15;;;;;;;58.88;17.85;;;;;;;;;;5072160;28;20053;-83
2022/12/23 12:50:05;;;;;;;65.38;17.58;;;;;;;;;;5056292;28;20053;-83
2022/12/23 12:52:37;;;;;;;62.25;17.13;;;;;;;;;;5068131;28;20087;-83
2022/12/23 12:55:24;;;;;;;64.78;15.82;;;;;;;;;;5071449;28;20934;-83
2022/12/23 12:57:51;;;;;;;56.83;15.63;;;;;;;;;;5067849;28;20034;-83
2022/12/23 13:00:19;;;;;;;56.90;15.30;;;;;;;;;;5069025;28;20060;-83
2022/12/23 13:02:48;;;;;;;60.38;15.50;;;;;;;;;;5072253;28;20068;-83
2022/12/23 13:05:20;;;;;;;52.17;16.08;;;;;;;;;;5049238;28;20140;-85
2022/12/23 13:08:05;;;;;;;61.58;16.25;;;;;;;;;;5060437;28;20064;-85
2022/12/23 13:10:31;;;;;;;54.90;15.45;;;;;;;;;;5064680;28;20064;-84
2022/12/23 13:13:17;;;;;;;57.63;16.05;;;;;;;;;;5066369;28;20499;-84
2022/12/23 13:15:43;;;;;;;57.58;15.70;;;;;;;;;;5046547;28;20171;-84
2022/12/23 13:18:18;;;;;;;56.40;16.42;;;;;;;;;;5064450;28;20060;-84
2022/12/23 13:20:52;;;;;;;56.38;15.98;;;;;;;;;;5059633;28;20049;-84
2022/12/23 13:23:28;;;;;;;58.10;15.85;;;;;;;;;;5051385;28;20275;-84
2022/12/23 13:26:23;;;;;;;54.88;15.68;;;;;;;;;;5068003;28;20052;-84
2022/12/23 13:28:50;;;;;;;58.30;16.42;;;;;;;;;;5065850;28;20057;-83
2022/12/23 13:31:29;;;;;;;50.15;15.02;;;;;;;;;;5064200;28;20587;-84
2022/12/23 13:34:04;;;;;;;52.65;15.85;;;;;;;;;;5070363;28;20534;-84
2022/12/23 13:36:40;;;;;;;58.60;15.43;;;;;;;;;;5090692;28;20057;-82
2022/12/23 13:39:10;;;;;;;47.10;14.98;;;;;;;;;;5054210;28;20884;-82
2022/12/23 13:41:44;;;;;;;48.58;14.20;;;;;;;;;;5073456;28;20370;-83
2022/12/23 13:44:14;;;;;;;58.15;14.90;;;;;;;;;;5073115;28;20056;-82
2022/12/23 13:46:59;;;;;;;62.45;15.27;;;;;;;;;;5051894;28;20053;-82
2022/12/23 13:49:26;;;;;;;48.60;14.50;;;;;;;;;;5061062;28;20049;-82
2022/12/23 13:52:01;;;;;;;56.90;15.30;;;;;;;;;;5069261;28;20162;-82
2022/12/23 13:54:40;;;;;;;57.45;15.32;;;;;;;;;;5068662;28;20497;-82
2022/12/23 13:57:16;;;;;;;51.13;14.20;;;;;;;;;;5064928;28;20055;-82
2022/12/23 13:59:54;;;;;;;41.45;13.07;;;;;;;;;;5068625;28;20052;-83
2022/12/23 14:02:35;;;;;;;49.67;14.20;;;;;;;;;;5064013;28;20577;-83
2022/12/23 14:05:03;;;;;;;54.92;16.52;;;;;;;;;;5046726;28;20088;-83
2022/12/23 14:07:31;;;;;;;58.90;18.60;;;;;;;;;;5066121;28;20477;-83
2022/12/23 14:10:16;;;;;;;64.32;19.40;;;;;;;;;;5068097;28;20738;-83
2022/12/23 14:12:43;;;;;;;53.30;16.73;;;;;;;;;;5049323;28;20520;-82
2022/12/23 14:15:09;;;;;;;50.30;14.55;;;;;;;;;;5067353;28;20496;-83
2022/12/23 14:17:52;;;;;;;46.05;14.48;;;;;;;;;;5065472;28;20586;-84
2022/12/23 14:20:47;;;;;;;42.78;14.50;;;;;;;;;;5065325;28;20045;-83
2022/12/23 14:23:26;;;;;;;53.55;15.32;;;;;;;;;;5052909;28;20530;-82
2022/12/23 14:26:10;;;;;;;45.28;13.98;;;;;;;;;;5050070;28;20061;-82
2022/12/23 14:28:59;;;;;;;42.45;14.25;;;;;;;;;;5060051;28;20085;-83
2022/12/23 14:31:27;;;;;;;44.90;14.05;;;;;;;;;;5027190;28;20057;-83
2022/12/23 14:34:00;;;;;;;42.63;15.45;;;;;;;;;;5057503;28;20049;-82
2022/12/23 14:36:27;;;;;;;44.15;14.25;;;;;;;;;;5051047;28;20581;-82
2022/12/23 14:39:12;;;;;;;39.75;13.63;;;;;;;;;;5063873;28;20068;-82
2022/12/23 14:41:46;;;;;;;41.10;13.15;;;;;;;;;;5066874;28;20818;-82
2022/12/23 14:44:20;;;;;;;38.40;12.55;;;;;;;;;;5067118;28;20506;-82
2022/12/23 14:46:51;;;;;;;36.03;13.50;;;;;;;;;;5046945;28;20060;-82
2022/12/23 14:49:36;;;;;;;37.58;12.93;;;;;;;;;;5067209;28;20091;-82
2022/12/23 14:52:24;;;;;;;32.88;11.95;;;;;;;;;;5062601;28;20080;-82
2022/12/23 14:54:51;;;;;;;32.13;11.75;;;;;;;;;;5065877;28;20136;-82
2022/12/23 14:57:37;;;;;;;34.03;12.90;;;;;;;;;;5067438;28;20045;-82
2022/12/23 15:00:04;;;;;;;34.35;11.82;;;;;;;;;;5068659;28;20056;-82
2022/12/23 15:02:35;;;;;;;34.80;12.57;;;;;;;;;;5066970;28;20056;-82
2022/12/23 15:05:02;;;;;;;32.28;12.43;;;;;;;;;;5064979;28;20064;-82